createdAt,value
2019-04-06T00:00:15.201Z,993.07
2019-04-06T00:02:14.168Z,993.12
2019-04-06T00:03:15.155Z,993.10
2019-04-06T00:04:15.166Z,993.08
2019-04-06T00:05:15.133Z,993.14
2019-04-06T00:06:15.125Z,993.16
2019-04-06T00:07:15.108Z,993.11
2019-04-06T00:08:15.103Z,993.15
2019-04-06T00:09:15.087Z,993.10
2019-04-06T00:10:15.133Z,993.15
2019-04-06T00:11:15.075Z,993.14
2019-04-06T00:12:15.061Z,993.14
2019-04-06T00:13:15.063Z,993.08
2019-04-06T00:14:15.033Z,993.12
2019-04-06T00:15:15.031Z,993.11
2019-04-06T00:16:15.756Z,993.13
2019-04-06T00:17:15.032Z,993.10
2019-04-06T00:18:14.998Z,993.12
2019-04-06T00:19:14.984Z,993.17
2019-04-06T00:20:14.974Z,993.20
2019-04-06T00:21:14.960Z,993.27
2019-04-06T00:22:14.952Z,993.27
2019-04-06T00:23:14.964Z,993.25
2019-04-06T00:24:14.929Z,993.25
2019-04-06T00:25:14.940Z,993.25
2019-04-06T00:26:14.927Z,993.20
2019-04-06T00:27:14.953Z,993.18
2019-04-06T00:28:14.906Z,993.19
2019-04-06T00:29:14.890Z,993.23
2019-04-06T00:30:14.939Z,993.24
2019-04-06T00:31:14.873Z,993.22
2019-04-06T00:32:14.860Z,993.19
2019-04-06T00:33:14.870Z,993.21
2019-04-06T00:34:14.838Z,993.20
2019-04-06T00:35:14.827Z,993.23
2019-04-06T00:36:14.828Z,993.18
2019-04-06T00:37:14.787Z,993.14
2019-04-06T00:38:14.837Z,993.15
2019-04-06T00:39:14.788Z,993.15
2019-04-06T00:40:14.813Z,993.17
2019-04-06T00:41:14.764Z,993.16
2019-04-06T00:42:14.768Z,993.13
2019-04-06T00:43:14.755Z,993.14
2019-04-06T00:44:16.761Z,993.11
2019-04-06T00:45:14.720Z,993.12
2019-04-06T00:46:14.706Z,993.13
2019-04-06T00:47:14.699Z,993.13
2019-04-06T00:48:14.693Z,993.15
2019-04-06T00:49:14.679Z,993.16
2019-04-06T00:50:14.689Z,993.15
2019-04-06T00:51:14.651Z,993.20
2019-04-06T00:52:14.642Z,993.18
2019-04-06T00:53:14.633Z,993.19
2019-04-06T00:54:16.226Z,993.23
2019-04-06T00:55:14.643Z,993.24
2019-04-06T00:56:14.606Z,993.21
2019-04-06T00:57:14.591Z,993.22
2019-04-06T00:58:14.575Z,993.24
2019-04-06T00:59:15.256Z,993.22
2019-04-06T01:00:14.557Z,993.19
2019-04-06T01:01:14.568Z,993.22
2019-04-06T01:02:14.581Z,993.19
2019-04-06T01:03:14.523Z,993.17
2019-04-06T01:04:14.519Z,993.19
2019-04-06T01:05:14.499Z,993.18
2019-04-06T01:06:14.501Z,993.22
2019-04-06T01:07:14.514Z,993.25
2019-04-06T01:08:14.465Z,993.23
2019-04-06T01:09:14.460Z,993.24
2019-04-06T01:10:14.451Z,993.25
2019-04-06T01:11:14.451Z,993.24
2019-04-06T01:12:14.427Z,993.23
2019-04-06T01:13:14.466Z,993.27
2019-04-06T01:14:14.395Z,993.30
2019-04-06T01:15:14.452Z,993.26
2019-04-06T01:16:14.371Z,993.29
2019-04-06T01:17:14.363Z,993.31
2019-04-06T01:18:14.356Z,993.33
2019-04-06T01:19:14.387Z,993.32
2019-04-06T01:20:14.342Z,993.33
2019-04-06T01:21:14.321Z,993.35
2019-04-06T01:22:14.307Z,993.31
2019-04-06T01:23:15.254Z,993.29
2019-04-06T01:24:14.292Z,993.30
2019-04-06T01:25:14.341Z,993.34
2019-04-06T01:26:14.267Z,993.30
2019-04-06T01:27:14.265Z,993.32
2019-04-06T01:28:14.270Z,993.35
2019-04-06T01:29:14.234Z,993.32
2019-04-06T01:30:14.751Z,993.30
2019-04-06T01:31:14.225Z,993.28
2019-04-06T01:32:14.207Z,993.29
2019-04-06T01:33:14.198Z,993.28
2019-04-06T01:34:14.185Z,993.27
2019-04-06T01:35:14.174Z,993.28
2019-04-06T01:36:14.216Z,993.30
2019-04-06T01:37:14.152Z,993.26
2019-04-06T01:38:14.139Z,993.31
2019-04-06T01:39:14.129Z,993.31
2019-04-06T01:40:14.117Z,993.33
2019-04-06T01:41:14.097Z,993.29
2019-04-06T01:42:14.129Z,993.25
2019-04-06T01:43:14.081Z,993.29
2019-04-06T01:44:14.071Z,993.25
2019-04-06T01:45:14.082Z,993.26
2019-04-06T01:46:14.059Z,993.25
2019-04-06T01:47:14.041Z,993.29
2019-04-06T01:48:14.142Z,993.27
2019-04-06T01:49:14.017Z,993.32
2019-04-06T01:50:14.009Z,993.34
2019-04-06T01:51:13.987Z,993.28
2019-04-06T01:52:13.983Z,993.29
2019-04-06T01:53:14.027Z,993.30
2019-04-06T01:54:13.969Z,993.29
2019-04-06T01:55:13.951Z,993.30
2019-04-06T01:56:18.792Z,993.32
2019-04-06T01:58:12.917Z,993.32
2019-04-06T01:59:14.295Z,993.32
2019-04-06T02:00:13.905Z,993.32
2019-04-06T02:01:13.882Z,993.29
2019-04-06T02:02:14.859Z,993.30
2019-04-06T02:03:13.866Z,993.29
2019-04-06T02:04:13.857Z,993.26
2019-04-06T02:05:13.841Z,993.27
2019-04-06T02:06:13.829Z,993.25
2019-04-06T02:07:13.898Z,993.25
2019-04-06T02:08:13.811Z,993.24
2019-04-06T02:09:13.821Z,993.24
2019-04-06T02:10:13.817Z,993.24
2019-04-06T02:11:13.776Z,993.25
2019-04-06T02:12:13.757Z,993.25
2019-04-06T02:13:13.750Z,993.24
2019-04-06T02:14:13.744Z,993.23
2019-04-06T02:15:13.729Z,993.19
2019-04-06T02:16:13.728Z,993.20
2019-04-06T02:17:13.703Z,993.20
2019-04-06T02:18:13.735Z,993.17
2019-04-06T02:19:13.682Z,993.19
2019-04-06T02:20:13.672Z,993.20
2019-04-06T02:21:13.669Z,993.21
2019-04-06T02:22:13.746Z,993.21
2019-04-06T02:23:14.224Z,993.18
2019-04-06T02:24:13.626Z,993.18
2019-04-06T02:25:13.623Z,993.22
2019-04-06T02:26:13.633Z,993.23
2019-04-06T02:27:13.611Z,993.24
2019-04-06T02:28:13.580Z,993.28
2019-04-06T02:29:13.566Z,993.22
2019-04-06T02:30:13.559Z,993.25
2019-04-06T02:31:13.556Z,993.23
2019-04-06T02:32:13.566Z,993.28
2019-04-06T02:33:14.696Z,993.32
2019-04-06T02:34:13.515Z,993.29
2019-04-06T02:35:13.505Z,993.32
2019-04-06T02:36:13.493Z,993.31
2019-04-06T02:37:13.485Z,993.34
2019-04-06T02:38:13.498Z,993.34
2019-04-06T02:39:13.463Z,993.31
2019-04-06T02:41:12.441Z,993.35
2019-04-06T02:42:13.476Z,993.36
2019-04-06T02:43:13.417Z,993.33
2019-04-06T02:44:13.408Z,993.32
2019-04-06T02:45:13.409Z,993.30
2019-04-06T02:46:13.391Z,993.29
2019-04-06T02:47:13.382Z,993.34
2019-04-06T02:48:13.403Z,993.33
2019-04-06T02:49:13.353Z,993.39
2019-04-06T02:50:13.358Z,993.42
2019-04-06T02:51:13.326Z,993.40
2019-04-06T02:52:13.317Z,993.39
2019-04-06T02:53:13.414Z,993.33
2019-04-06T02:54:13.303Z,993.35
2019-04-06T02:55:13.291Z,993.36
2019-04-06T02:56:13.278Z,993.35
2019-04-06T02:58:12.248Z,993.39
2019-04-06T02:59:13.267Z,993.39
2019-04-06T03:00:13.281Z,993.37
2019-04-06T03:01:13.213Z,993.43
2019-04-06T03:02:13.209Z,993.42
2019-04-06T03:03:13.484Z,993.46
2019-04-06T03:04:13.225Z,993.43
2019-04-06T03:05:13.199Z,993.39
2019-04-06T03:06:13.194Z,993.42
2019-04-06T03:07:13.154Z,993.41
2019-04-06T03:08:13.139Z,993.43
2019-04-06T03:09:13.166Z,993.42
2019-04-06T03:10:15.728Z,993.40
2019-04-06T03:11:14.774Z,993.39
2019-04-06T03:12:13.102Z,993.35
2019-04-06T03:13:13.085Z,993.33
2019-04-06T03:14:13.225Z,993.34
2019-04-06T03:15:13.068Z,993.33
2019-04-06T03:16:13.052Z,993.29
2019-04-06T03:17:15.751Z,993.35
2019-04-06T03:18:13.033Z,993.31
2019-04-06T03:19:13.020Z,993.37
2019-04-06T03:20:13.133Z,993.35
2019-04-06T03:21:12.999Z,993.33
2019-04-06T03:22:13.013Z,993.32
2019-04-06T03:23:13.269Z,993.33
2019-04-06T03:25:11.954Z,993.34
2019-04-06T03:26:12.948Z,993.39
2019-04-06T03:27:13.725Z,993.37
2019-04-06T03:28:12.923Z,993.34
2019-04-06T03:29:12.925Z,993.34
2019-04-06T03:30:12.899Z,993.41
2019-04-06T03:31:13.359Z,993.40
2019-04-06T03:32:12.887Z,993.41
2019-04-06T03:33:12.895Z,993.40
2019-04-06T03:34:13.028Z,993.37
2019-04-06T03:35:13.124Z,993.37
2019-04-06T03:36:12.849Z,993.40
2019-04-06T03:37:12.928Z,993.40
2019-04-06T03:38:12.815Z,993.38
2019-04-06T03:39:12.834Z,993.39
2019-04-06T03:40:12.804Z,993.40
2019-04-06T03:41:12.781Z,993.43
2019-04-06T03:42:12.823Z,993.43
2019-04-06T03:43:12.758Z,993.43
2019-04-06T03:44:12.775Z,993.37
2019-04-06T03:45:12.794Z,993.37
2019-04-06T03:46:12.749Z,993.40
2019-04-06T03:47:13.217Z,993.40
2019-04-06T03:48:12.707Z,993.40
2019-04-06T03:49:12.778Z,993.45
2019-04-06T03:50:12.700Z,993.43
2019-04-06T03:51:13.239Z,993.47
2019-04-06T03:52:12.653Z,993.46
2019-04-06T03:53:12.676Z,993.46
2019-04-06T03:54:12.635Z,993.43
2019-04-06T03:55:12.836Z,993.41
2019-04-06T03:56:12.651Z,993.42
2019-04-06T03:57:16.296Z,993.45
2019-04-06T03:58:12.687Z,993.45
2019-04-06T03:59:13.211Z,993.46
2019-04-06T04:00:12.712Z,993.49
2019-04-06T04:01:13.235Z,993.44
2019-04-06T04:02:12.701Z,993.43
2019-04-06T04:03:12.533Z,993.43
2019-04-06T04:04:12.524Z,993.44
2019-04-06T04:05:12.510Z,993.41
2019-04-06T04:06:12.640Z,993.44
2019-04-06T04:07:12.515Z,993.44
2019-04-06T04:08:12.469Z,993.44
2019-04-06T04:09:12.460Z,993.41
2019-04-06T04:10:12.513Z,993.43
2019-04-06T04:11:12.438Z,993.43
2019-04-06T04:12:12.452Z,993.43
2019-04-06T04:14:11.410Z,993.51
2019-04-06T04:15:12.719Z,993.50
2019-04-06T04:16:12.387Z,993.45
2019-04-06T04:17:12.413Z,993.48
2019-04-06T04:18:12.535Z,993.47
2019-04-06T04:19:12.362Z,993.45
2019-04-06T04:20:12.344Z,993.46
2019-04-06T04:21:13.211Z,993.50
2019-04-06T04:22:12.449Z,993.49
2019-04-06T04:23:12.352Z,993.48
2019-04-06T04:24:13.205Z,993.49
2019-04-06T04:25:12.323Z,993.51
2019-04-06T04:26:12.287Z,993.51
2019-04-06T04:27:12.274Z,993.50
2019-04-06T04:28:12.260Z,993.48
2019-04-06T04:29:12.358Z,993.49
2019-04-06T04:30:15.025Z,993.52
2019-04-06T04:31:12.222Z,993.52
2019-04-06T04:32:12.400Z,993.50
2019-04-06T04:33:12.207Z,993.52
2019-04-06T04:34:12.704Z,993.50
2019-04-06T04:35:12.179Z,993.55
2019-04-06T04:36:12.249Z,993.50
2019-04-06T04:37:12.173Z,993.50
2019-04-06T04:39:11.133Z,993.51
2019-04-06T04:40:14.700Z,993.58
2019-04-06T04:41:12.121Z,993.57
2019-04-06T04:42:12.742Z,993.57
2019-04-06T04:43:12.234Z,993.61
2019-04-06T04:44:12.093Z,993.61
2019-04-06T04:45:12.086Z,993.64
2019-04-06T04:47:11.053Z,993.61
2019-04-06T04:48:12.140Z,993.63
2019-04-06T04:49:12.027Z,993.61
2019-04-06T04:50:12.138Z,993.61
2019-04-06T04:51:12.006Z,993.63
2019-04-06T04:52:14.695Z,993.58
2019-04-06T04:53:11.992Z,993.57
2019-04-06T04:54:11.972Z,993.56
2019-04-06T04:55:11.957Z,993.62
2019-04-06T04:56:12.115Z,993.65
2019-04-06T04:57:11.941Z,993.67
2019-04-06T04:58:11.924Z,993.69
2019-04-06T04:59:14.692Z,993.61
2019-04-06T05:00:11.905Z,993.65
2019-04-06T05:01:11.893Z,993.69
2019-04-06T05:02:11.897Z,993.72
2019-04-06T05:03:11.871Z,993.66
2019-04-06T05:04:11.863Z,993.66
2019-04-06T05:05:11.857Z,993.66
2019-04-06T05:06:12.691Z,993.69
2019-04-06T05:07:11.968Z,993.69
2019-04-06T05:08:11.815Z,993.71
2019-04-06T05:09:11.812Z,993.72
2019-04-06T05:10:14.696Z,993.67
2019-04-06T05:11:11.778Z,993.70
2019-04-06T05:12:11.817Z,993.68
2019-04-06T05:13:11.760Z,993.70
2019-04-06T05:14:11.748Z,993.73
2019-04-06T05:15:11.748Z,993.68
2019-04-06T05:16:11.727Z,993.70
2019-04-06T05:17:11.723Z,993.67
2019-04-06T05:18:14.693Z,993.72
2019-04-06T05:19:11.695Z,993.69
2019-04-06T05:20:11.684Z,993.66
2019-04-06T05:21:11.756Z,993.69
2019-04-06T05:22:12.212Z,993.72
2019-04-06T05:23:11.652Z,993.75
2019-04-06T05:24:11.680Z,993.72
2019-04-06T05:25:11.628Z,993.73
2019-04-06T05:26:11.641Z,993.75
2019-04-06T05:27:11.644Z,993.74
2019-04-06T05:28:11.607Z,993.79
2019-04-06T05:29:11.590Z,993.79
2019-04-06T05:30:11.618Z,993.84
2019-04-06T05:31:11.719Z,993.81
2019-04-06T05:32:11.568Z,993.84
2019-04-06T05:33:11.543Z,993.80
2019-04-06T05:34:11.546Z,993.80
2019-04-06T05:35:11.672Z,993.83
2019-04-06T05:36:11.590Z,993.79
2019-04-06T05:38:10.494Z,993.74
2019-04-06T05:39:11.475Z,993.79
2019-04-06T05:40:11.483Z,993.80
2019-04-06T05:41:11.450Z,993.79
2019-04-06T05:42:11.450Z,993.83
2019-04-06T05:43:11.445Z,993.88
2019-04-06T05:44:11.425Z,993.89
2019-04-06T05:45:11.408Z,993.83
2019-04-06T05:47:10.422Z,993.87
2019-04-06T05:48:11.408Z,993.86
2019-04-06T05:49:11.368Z,993.93
2019-04-06T05:50:11.358Z,993.93
2019-04-06T05:51:11.397Z,993.95
2019-04-06T05:52:11.647Z,993.98
2019-04-06T05:53:11.321Z,993.99
2019-04-06T05:54:11.321Z,993.94
2019-04-06T05:55:11.317Z,993.98
2019-04-06T05:56:11.405Z,993.92
2019-04-06T05:57:11.285Z,993.98
2019-04-06T05:58:11.269Z,993.95
2019-04-06T05:59:11.256Z,993.98
2019-04-06T06:00:11.589Z,993.97
2019-04-06T06:01:11.431Z,993.93
2019-04-06T06:02:11.467Z,993.95
2019-04-06T06:03:11.507Z,993.97
2019-04-06T06:04:11.483Z,993.93
2019-04-06T06:05:11.483Z,993.93
2019-04-06T06:06:12.539Z,993.97
2019-04-06T06:07:11.172Z,994.01
2019-04-06T06:08:11.357Z,994.03
2019-04-06T06:10:10.136Z,994.01
2019-04-06T06:11:11.142Z,994.06
2019-04-06T06:12:11.126Z,994.02
2019-04-06T06:14:10.255Z,994.06
2019-04-06T06:15:11.080Z,994.02
2019-04-06T06:16:12.099Z,994.04
2019-04-06T06:17:11.231Z,994.07
2019-04-06T06:18:11.075Z,994.09
2019-04-06T06:19:11.059Z,994.09
2019-04-06T06:20:11.048Z,994.10
2019-04-06T06:21:11.169Z,994.11
2019-04-06T06:22:11.006Z,994.14
2019-04-06T06:23:10.994Z,994.14
2019-04-06T06:24:10.981Z,994.14
2019-04-06T06:25:10.997Z,994.11
2019-04-06T06:26:10.957Z,994.07
2019-04-06T06:27:10.951Z,994.11
2019-04-06T06:28:15.253Z,994.11
2019-04-06T06:29:10.928Z,994.11
2019-04-06T06:30:10.928Z,994.09
2019-04-06T06:31:10.944Z,994.13
2019-04-06T06:32:10.918Z,994.12
2019-04-06T06:33:11.118Z,994.11
2019-04-06T06:34:10.874Z,994.12
2019-04-06T06:35:10.897Z,994.11
2019-04-06T06:36:10.858Z,994.15
2019-04-06T06:37:10.850Z,994.13
2019-04-06T06:38:10.830Z,994.03
2019-04-06T06:39:10.817Z,994.09
2019-04-06T06:40:10.947Z,994.06
2019-04-06T06:41:10.870Z,994.08
2019-04-06T06:42:10.816Z,994.05
2019-04-06T06:43:10.782Z,994.07
2019-04-06T06:44:10.766Z,994.06
2019-04-06T06:45:13.683Z,994.05
2019-04-06T06:46:10.742Z,994.10
2019-04-06T06:47:10.728Z,994.10
2019-04-06T06:49:10.659Z,994.04
2019-04-06T06:50:10.692Z,994.00
2019-04-06T06:52:09.707Z,994.04
2019-04-06T06:53:10.670Z,994.06
2019-04-06T06:54:10.813Z,994.05
2019-04-06T06:55:10.644Z,994.12
2019-04-06T06:56:10.642Z,994.07
2019-04-06T06:57:10.644Z,994.05
2019-04-06T06:58:10.619Z,994.02
2019-04-06T06:59:10.598Z,994.05
2019-04-06T07:00:10.609Z,994.04
2019-04-06T07:01:10.576Z,994.01
2019-04-06T07:02:10.566Z,993.95
2019-04-06T07:03:10.608Z,993.99
2019-04-06T07:04:10.539Z,994.02
2019-04-06T07:05:10.551Z,993.99
2019-04-06T07:06:10.523Z,993.95
2019-04-06T07:07:10.512Z,993.96
2019-04-06T07:08:10.652Z,993.98
2019-04-06T07:09:10.566Z,993.94
2019-04-06T07:10:10.478Z,993.97
2019-04-06T07:11:10.475Z,993.96
2019-04-06T07:12:10.467Z,993.96
2019-04-06T07:13:10.442Z,993.98
2019-04-06T07:14:11.173Z,993.96
2019-04-06T07:15:10.442Z,993.96
2019-04-06T07:16:10.420Z,993.94
2019-04-06T07:17:10.412Z,993.98
2019-04-06T07:18:10.404Z,993.94
2019-04-06T07:19:10.375Z,993.88
2019-04-06T07:20:10.418Z,993.89
2019-04-06T07:21:10.361Z,993.87
2019-04-06T07:22:10.348Z,993.90
2019-04-06T07:23:10.341Z,993.94
2019-04-06T07:24:10.323Z,993.93
2019-04-06T07:25:13.154Z,993.92
2019-04-06T07:26:15.839Z,993.92
2019-04-06T07:27:10.301Z,993.94
2019-04-06T07:28:10.297Z,993.96
2019-04-06T07:29:10.281Z,993.94
2019-04-06T07:30:10.260Z,993.89
2019-04-06T07:31:10.249Z,993.92
2019-04-06T07:32:10.518Z,993.92
2019-04-06T07:33:10.227Z,993.90
2019-04-06T07:34:11.153Z,993.92
2019-04-06T07:35:10.210Z,993.88
2019-04-06T07:36:10.226Z,993.89
2019-04-06T07:37:10.188Z,993.88
2019-04-06T07:38:11.692Z,993.94
2019-04-06T07:39:10.290Z,993.92
2019-04-06T07:40:10.154Z,993.95
2019-04-06T07:41:10.154Z,993.93
2019-04-06T07:42:10.149Z,993.94
2019-04-06T07:43:10.117Z,993.91
2019-04-06T07:44:10.117Z,993.86
2019-04-06T07:45:10.095Z,993.89
2019-04-06T07:47:09.083Z,993.84
2019-04-06T07:48:10.101Z,993.86
2019-04-06T07:49:10.639Z,993.86
2019-04-06T07:50:10.045Z,993.86
2019-04-06T07:51:10.212Z,993.89
2019-04-06T07:52:10.021Z,993.87
2019-04-06T07:53:10.016Z,993.86
2019-04-06T07:54:10.046Z,993.80
2019-04-06T07:55:09.990Z,993.84
2019-04-06T07:56:09.983Z,993.86
2019-04-06T07:57:09.978Z,993.81
2019-04-06T07:59:11.646Z,993.83
2019-04-06T08:00:10.196Z,993.83
2019-04-06T08:01:09.925Z,993.83
2019-04-06T08:03:08.893Z,993.80
2019-04-06T08:04:09.887Z,993.78
2019-04-06T08:05:10.117Z,993.76
2019-04-06T08:06:09.905Z,993.72
2019-04-06T08:07:09.912Z,993.71
2019-04-06T08:08:10.104Z,993.74
2019-04-06T08:09:10.026Z,993.74
2019-04-06T08:10:09.819Z,993.73
2019-04-06T08:11:09.823Z,993.74
2019-04-06T08:12:09.839Z,993.71
2019-04-06T08:14:08.778Z,993.70
2019-04-06T08:15:10.042Z,993.70
2019-04-06T08:16:09.818Z,993.70
2019-04-06T08:17:09.830Z,993.72
2019-04-06T08:18:09.777Z,993.69
2019-04-06T08:19:09.857Z,993.68
2019-04-06T08:20:09.714Z,993.71
2019-04-06T08:21:09.696Z,993.73
2019-04-06T08:22:09.740Z,993.72
2019-04-06T08:23:09.847Z,993.72
2019-04-06T08:24:09.739Z,993.72
2019-04-06T08:25:10.192Z,993.72
2019-04-06T08:26:09.653Z,993.67
2019-04-06T08:27:12.257Z,993.66
2019-04-06T08:28:09.639Z,993.68
2019-04-06T08:29:09.608Z,993.61
2019-04-06T08:30:09.596Z,993.61
2019-04-06T08:31:09.641Z,993.62
2019-04-06T08:32:09.582Z,993.57
2019-04-06T08:33:09.611Z,993.55
2019-04-06T08:34:09.550Z,993.57
2019-04-06T08:35:09.543Z,993.53
2019-04-06T08:36:09.532Z,993.47
2019-04-06T08:37:09.527Z,993.46
2019-04-06T08:38:09.519Z,993.46
2019-04-06T08:39:09.524Z,993.41
2019-04-06T08:40:09.503Z,993.41
2019-04-06T08:41:09.824Z,993.41
2019-04-06T08:42:09.464Z,993.36
2019-04-06T08:43:09.465Z,993.39
2019-04-06T08:44:09.437Z,993.33
2019-04-06T08:45:09.449Z,993.42
2019-04-06T08:46:10.135Z,993.35
2019-04-06T08:47:09.405Z,993.35
2019-04-06T08:48:09.399Z,993.32
2019-04-06T08:49:09.383Z,993.35
2019-04-06T08:50:09.413Z,993.33
2019-04-06T08:51:09.360Z,993.31
2019-04-06T08:52:11.420Z,993.33
2019-04-06T08:53:09.336Z,993.35
2019-04-06T08:54:09.336Z,993.34
2019-04-06T08:55:09.318Z,993.35
2019-04-06T08:56:09.328Z,993.34
2019-04-06T08:57:09.414Z,993.31
2019-04-06T08:58:09.281Z,993.35
2019-04-06T08:59:12.072Z,993.31
2019-04-06T09:00:09.275Z,993.32
2019-04-06T09:01:09.253Z,993.28
2019-04-06T09:02:09.270Z,993.27
2019-04-06T09:03:09.413Z,993.27
2019-04-06T09:04:09.213Z,993.24
2019-04-06T09:05:09.215Z,993.24
2019-04-06T09:06:09.235Z,993.26
2019-04-06T09:07:09.185Z,993.25
2019-04-06T09:08:09.173Z,993.26
2019-04-06T09:09:09.179Z,993.23
2019-04-06T09:10:09.174Z,993.27
2019-04-06T09:11:09.153Z,993.20
2019-04-06T09:12:09.155Z,993.27
2019-04-06T09:13:09.117Z,993.28
2019-04-06T09:14:09.206Z,993.16
2019-04-06T09:15:09.195Z,993.21
2019-04-06T09:16:09.097Z,993.20
2019-04-06T09:17:09.188Z,993.18
2019-04-06T09:18:09.246Z,993.15
2019-04-06T09:19:09.063Z,993.16
2019-04-06T09:20:09.056Z,993.11
2019-04-06T09:21:09.034Z,993.07
2019-04-06T09:22:09.027Z,993.10
2019-04-06T09:23:09.035Z,993.14
2019-04-06T09:25:07.987Z,993.12
2019-04-06T09:26:08.975Z,993.13
2019-04-06T09:27:08.967Z,993.10
2019-04-06T09:28:09.670Z,993.11
2019-04-06T09:29:08.955Z,993.03
2019-04-06T09:30:09.132Z,993.03
2019-04-06T09:31:08.923Z,992.95
2019-04-06T09:32:08.918Z,992.96
2019-04-06T09:33:08.911Z,992.99
2019-04-06T09:34:08.911Z,993.01
2019-04-06T09:35:09.156Z,992.95
2019-04-06T09:36:08.863Z,992.96
2019-04-06T09:37:08.855Z,992.92
2019-04-06T09:38:11.631Z,992.90
2019-04-06T09:39:08.837Z,992.86
2019-04-06T09:40:08.848Z,992.90
2019-04-06T09:41:08.864Z,992.86
2019-04-06T09:42:08.804Z,992.80
2019-04-06T09:43:08.797Z,992.82
2019-04-06T09:44:08.784Z,992.78
2019-04-06T09:45:08.768Z,992.80
2019-04-06T09:46:08.783Z,992.76
2019-04-06T09:47:11.631Z,992.72
2019-04-06T09:48:08.737Z,992.75
2019-04-06T09:49:08.727Z,992.75
2019-04-06T09:50:08.949Z,992.75
2019-04-06T09:51:08.701Z,992.71
2019-04-06T09:52:08.764Z,992.68
2019-04-06T09:53:08.753Z,992.73
2019-04-06T09:54:08.848Z,992.72
2019-04-06T09:55:08.661Z,992.71
2019-04-06T09:56:08.652Z,992.69
2019-04-06T09:57:08.639Z,992.74
2019-04-06T09:58:08.954Z,992.71
2019-04-06T09:59:08.621Z,992.71
2019-04-06T10:00:11.140Z,992.73
2019-04-06T10:03:07.570Z,992.72
2019-04-06T10:04:08.660Z,992.73
2019-04-06T10:05:08.543Z,992.68
2019-04-06T10:06:08.539Z,992.68
2019-04-06T10:07:08.547Z,992.69
2019-04-06T10:08:08.726Z,992.69
2019-04-06T10:09:08.503Z,992.72
2019-04-06T10:10:08.493Z,992.69
2019-04-06T10:11:08.488Z,992.70
2019-04-06T10:12:08.517Z,992.68
2019-04-06T10:13:08.739Z,992.64
2019-04-06T10:14:08.586Z,992.64
2019-04-06T10:15:08.455Z,992.61
2019-04-06T10:16:08.430Z,992.62
2019-04-06T10:17:08.423Z,992.63
2019-04-06T10:18:08.436Z,992.63
2019-04-06T10:19:08.404Z,992.62
2019-04-06T10:20:08.750Z,992.64
2019-04-06T10:21:08.475Z,992.60
2019-04-06T10:22:08.565Z,992.60
2019-04-06T10:23:11.123Z,992.61
2019-04-06T10:24:08.647Z,992.60
2019-04-06T10:25:10.888Z,992.60
2019-04-06T10:26:08.329Z,992.60
2019-04-06T10:27:08.546Z,992.55
2019-04-06T10:28:08.524Z,992.60
2019-04-06T10:29:08.667Z,992.57
2019-04-06T10:30:08.293Z,992.56
2019-04-06T10:31:08.267Z,992.58
2019-04-06T10:32:08.261Z,992.55
2019-04-06T10:33:08.270Z,992.49
2019-04-06T10:34:11.321Z,992.51
2019-04-06T10:35:08.433Z,992.54
2019-04-06T10:36:08.223Z,992.55
2019-04-06T10:37:08.207Z,992.54
2019-04-06T10:38:08.213Z,992.55
2019-04-06T10:39:08.181Z,992.51
2019-04-06T10:40:08.198Z,992.52
2019-04-06T10:41:08.162Z,992.49
2019-04-06T10:42:08.149Z,992.47
2019-04-06T10:43:08.143Z,992.46
2019-04-06T10:44:08.135Z,992.49
2019-04-06T10:45:08.143Z,992.45
2019-04-06T10:46:08.111Z,992.45
2019-04-06T10:47:08.101Z,992.44
2019-04-06T10:48:08.100Z,992.44
2019-04-06T10:49:08.077Z,992.48
2019-04-06T10:50:08.062Z,992.45
2019-04-06T10:51:08.313Z,992.41
2019-04-06T10:52:08.199Z,992.39
2019-04-06T10:53:08.032Z,992.40
2019-04-06T10:54:08.011Z,992.41
2019-04-06T10:55:08.223Z,992.33
2019-04-06T10:56:08.092Z,992.34
2019-04-06T10:58:07.190Z,992.33
2019-04-06T10:59:08.119Z,992.32
2019-04-06T11:00:07.952Z,992.31
2019-04-06T11:01:07.943Z,992.27
2019-04-06T11:02:07.966Z,992.27
2019-04-06T11:03:10.616Z,992.24
2019-04-06T11:04:10.699Z,992.22
2019-04-06T11:05:10.617Z,992.26
2019-04-06T11:06:07.942Z,992.24
2019-04-06T11:07:07.882Z,992.22
2019-04-06T11:08:08.178Z,992.25
2019-04-06T11:09:07.924Z,992.19
2019-04-06T11:10:07.850Z,992.20
2019-04-06T11:11:08.077Z,992.16
2019-04-06T11:12:07.824Z,992.23
2019-04-06T11:13:07.845Z,992.23
2019-04-06T11:14:08.625Z,992.19
2019-04-06T11:15:07.889Z,992.14
2019-04-06T11:16:07.770Z,992.15
2019-04-06T11:17:07.833Z,992.20
2019-04-06T11:18:07.867Z,992.18
2019-04-06T11:19:07.990Z,992.18
2019-04-06T11:20:07.727Z,992.18
2019-04-06T11:21:07.731Z,992.15
2019-04-06T11:22:07.702Z,992.11
2019-04-06T11:23:08.611Z,992.14
2019-04-06T11:24:07.690Z,992.12
2019-04-06T11:25:07.712Z,992.09
2019-04-06T11:26:07.701Z,992.12
2019-04-06T11:27:07.665Z,992.10
2019-04-06T11:28:07.642Z,992.07
2019-04-06T11:29:07.622Z,992.09
2019-04-06T11:30:13.997Z,992.06
2019-04-06T11:31:07.667Z,992.01
2019-04-06T11:32:07.628Z,991.99
2019-04-06T11:33:07.582Z,992.00
2019-04-06T11:34:08.013Z,991.99
2019-04-06T11:35:07.570Z,991.96
2019-04-06T11:36:07.567Z,991.99
2019-04-06T11:37:07.540Z,992.04
2019-04-06T11:38:07.687Z,991.97
2019-04-06T11:39:07.520Z,991.97
2019-04-06T11:40:07.891Z,991.99
2019-04-06T11:41:07.763Z,991.98
2019-04-06T11:42:07.484Z,991.98
2019-04-06T11:43:07.598Z,991.99
2019-04-06T11:44:07.466Z,991.98
2019-04-06T11:45:08.115Z,991.93
2019-04-06T11:46:07.450Z,991.89
2019-04-06T11:47:07.473Z,991.85
2019-04-06T11:48:07.418Z,991.89
2019-04-06T11:49:07.674Z,991.95
2019-04-06T11:50:07.404Z,991.91
2019-04-06T11:51:07.472Z,991.94
2019-04-06T11:52:07.787Z,991.89
2019-04-06T11:53:07.617Z,991.89
2019-04-06T11:54:08.116Z,991.91
2019-04-06T11:55:07.350Z,991.90
2019-04-06T11:56:07.336Z,991.98
2019-04-06T11:57:07.340Z,991.92
2019-04-06T11:58:07.518Z,991.89
2019-04-06T11:59:07.662Z,991.85
2019-04-06T12:00:10.110Z,991.89
2019-04-06T12:01:07.274Z,991.92
2019-04-06T12:02:07.273Z,991.87
2019-04-06T12:03:07.304Z,991.91
2019-04-06T12:04:07.252Z,991.87
2019-04-06T12:05:07.288Z,991.90
2019-04-06T12:06:07.226Z,991.88
2019-04-06T12:07:07.236Z,991.88
2019-04-06T12:08:07.200Z,991.85
2019-04-06T12:09:07.300Z,991.84
2019-04-06T12:10:07.181Z,991.81
2019-04-06T12:11:07.175Z,991.76
2019-04-06T12:12:07.166Z,991.73
2019-04-06T12:13:07.181Z,991.70
2019-04-06T12:14:07.140Z,991.72
2019-04-06T12:15:07.147Z,991.71
2019-04-06T12:16:07.123Z,991.71
2019-04-06T12:18:06.100Z,991.72
2019-04-06T12:19:07.265Z,991.71
2019-04-06T12:20:07.115Z,991.62
2019-04-06T12:21:07.062Z,991.62
2019-04-06T12:22:07.600Z,991.67
2019-04-06T12:23:07.039Z,991.64
2019-04-06T12:24:07.089Z,991.62
2019-04-06T12:25:07.056Z,991.64
2019-04-06T12:26:07.064Z,991.69
2019-04-06T12:27:07.241Z,991.63
2019-04-06T12:28:07.605Z,991.56
2019-04-06T12:29:06.970Z,991.60
2019-04-06T12:30:07.321Z,991.59
2019-04-06T12:31:06.970Z,991.56
2019-04-06T12:32:06.950Z,991.54
2019-04-06T12:33:07.230Z,991.54
2019-04-06T12:34:06.917Z,991.56
2019-04-06T12:35:06.913Z,991.56
2019-04-06T12:36:06.919Z,991.55
2019-04-06T12:37:06.884Z,991.51
2019-04-06T12:38:06.879Z,991.49
2019-04-06T12:39:06.880Z,991.48
2019-04-06T12:40:06.904Z,991.49
2019-04-06T12:41:06.846Z,991.55
2019-04-06T12:42:07.140Z,991.53
2019-04-06T12:43:07.104Z,991.59
2019-04-06T12:44:06.811Z,991.47
2019-04-06T12:45:06.938Z,991.53
2019-04-06T12:46:09.598Z,991.51
2019-04-06T12:47:06.775Z,991.47
2019-04-06T12:48:10.143Z,991.46
2019-04-06T12:49:06.777Z,991.45
2019-04-06T12:50:07.076Z,991.46
2019-04-06T12:51:06.739Z,991.45